Reply To: Saturday and Sunday 10-7 & 8

Welcome to Sky Soaring Forums Restricted content Saturday and Sunday 10-7 & 8 Reply To: Saturday and Sunday 10-7 & 8

#14289
Rich WalendaRich Walenda
Participant

    Hello:

    Today is a possibly challenging training day if the winds pick up.

    Today:  Sunny, with a high near 56. Northwest wind 10 to 15 mph, with gusts as high as 25 mph.

    Sunday:  A 20 percent chance of showers. Mostly cloudy, with a high near 55. West wind 5 to 10 mph.

    METAR and TAF below.

    Regards,

    Rich

    METAR for:KDPA (Dupage Cnty Arpt, IL, US)
    KDPA 071152Z 30010KT 10SM CLR 06/04 A3011 RMK AO2 SLP201 70006 T00610039 10078 20061 51009
    TAF for:KDPA (Dupage Cnty Arpt, IL, US) issued at 1120 UTC 07 Oct 2023

    KDPA 071120Z 0712/0812 30012G18KT P6SM FEW050 SCT100

    • This reply was modified 7 months, 2 weeks ago by Rich WalendaRich Walenda.